Time;durP1;ratioP1;P1;durP2;ratioP2;P2;SDS_P1;SDS_P2;PMS_P1;PMS_P2;Temp;Humidity;BMP_temperature;BMP_pressure;BME280_temperature;BME280_humidity;BME280_pressure;Samples;Min_cycle;Max_cycle;Signal;HPM_P1;HPM_P2
2022/04/20 00:01:22;;;;;;;2.47;1.40;;;;;;;10.07;48.95;101196.66;5044654;28;20089;-68
2022/04/20 00:03:48;;;;;;;1.67;1.10;;;;;;;10.13;48.90;101194.09;5062532;28;20028;-68
2022/04/20 00:06:13;;;;;;;1.52;1.25;;;;;;;10.05;49.12;101190.59;5062704;28;20025;-68
2022/04/20 00:08:38;;;;;;;1.60;1.25;;;;;;;9.89;49.32;101200.88;5062788;28;20173;-69
2022/04/20 00:11:04;;;;;;;3.13;1.30;;;;;;;9.91;49.25;101193.97;5062473;28;20108;-69
2022/04/20 00:13:29;;;;;;;2.42;1.38;;;;;;;10.19;48.96;101197.59;5062649;28;20071;-69
2022/04/20 00:15:55;;;;;;;3.67;1.23;;;;;;;10.04;49.32;101188.84;5062790;28;20029;-68
2022/04/20 00:18:21;;;;;;;1.63;1.02;;;;;;;9.98;49.41;101188.81;5066032;28;20021;-67
2022/04/20 00:20:46;;;;;;;3.30;1.60;;;;;;;9.87;49.72;101204.31;5066233;28;20025;-68
2022/04/20 00:23:12;;;;;;;2.10;1.05;;;;;;;9.93;49.70;101201.75;5066026;28;20025;-68
2022/04/20 00:25:37;;;;;;;2.03;1.40;;;;;;;9.85;49.79;101187.88;5065975;28;20503;-69
2022/04/20 00:28:02;;;;;;;2.22;1.00;;;;;;;9.96;49.73;101195.72;5065926;28;20071;-69
2022/04/20 00:30:28;;;;;;;2.10;1.42;;;;;;;9.77;50.14;101196.47;5048150;28;20322;-68
2022/04/20 00:32:53;;;;;;;3.55;1.23;;;;;;;9.58;50.26;101179.91;5065542;28;20052;-69
2022/04/20 00:35:19;;;;;;;2.13;1.42;;;;;;;9.60;50.60;101190.28;5065990;28;20461;-69
2022/04/20 00:37:45;;;;;;;1.65;1.00;;;;;;;9.79;50.23;101191.28;5066258;28;20024;-68
2022/04/20 00:40:11;;;;;;;1.83;1.30;;;;;;;9.76;50.38;101199.91;5066099;28;20465;-69
2022/04/20 00:42:40;;;;;;;1.00;0.90;;;;;;;9.77;50.34;101183.50;5065233;28;20036;-67
2022/04/20 00:45:07;;;;;;;2.20;1.45;;;;;;;9.61;50.67;101204.97;5065752;28;20017;-70
2022/04/20 00:47:36;;;;;;;5.15;1.63;;;;;;;9.48;50.99;101204.88;5065342;28;20036;-70
2022/04/20 00:50:03;;;;;;;5.35;1.50;;;;;;;9.64;50.75;101207.59;5065269;28;20021;-69
2022/04/20 00:52:28;;;;;;;2.70;1.40;;;;;;;9.46;51.08;101213.47;5065406;28;20017;-69
2022/04/20 00:54:53;;;;;;;3.15;1.80;;;;;;;9.42;51.18;101213.44;5065509;28;20017;-70
2022/04/20 00:57:19;;;;;;;2.47;1.70;;;;;;;9.38;51.46;101210.78;5065220;28;20039;-69
2022/04/20 00:59:45;;;;;;;2.97;1.60;;;;;;;9.38;51.42;101210.78;5065161;28;20020;-70
2022/04/20 01:02:11;;;;;;;1.95;1.50;;;;;;;9.20;51.56;101199.41;5064551;28;20025;-69
2022/04/20 01:04:38;;;;;;;2.55;1.40;;;;;;;9.44;51.35;101204.81;5063876;28;20024;-69
2022/04/20 01:07:13;;;;;;;2.25;1.40;;;;;;;9.28;51.73;101204.69;5047439;28;20373;-70
2022/04/20 01:09:40;;;;;;;5.05;1.70;;;;;;;9.31;51.69;101207.31;5064761;28;20033;-70
2022/04/20 01:12:07;;;;;;;2.05;1.55;;;;;;;9.13;51.99;101201.09;5064930;28;20088;-69
2022/04/20 01:14:32;;;;;;;2.47;1.30;;;;;;;9.17;52.07;101205.44;5065150;28;20021;-69
2022/04/20 01:16:57;;;;;;;1.90;1.23;;;;;;;9.25;51.89;101204.66;5047186;28;20115;-69
2022/04/20 01:19:34;;;;;;;2.00;1.60;;;;;;;9.21;52.01;101213.22;5065080;28;20025;-71
2022/04/20 01:22:03;;;;;;;2.30;1.58;;;;;;;9.11;52.35;101207.06;5064820;28;20013;-69
2022/04/20 01:24:29;;;;;;;4.32;1.88;;;;;;;9.01;52.49;101200.97;5065092;28;20021;-69
2022/04/20 01:26:55;;;;;;;1.70;1.23;;;;;;;8.99;52.61;101195.75;5064881;28;20372;-70
2022/04/20 01:29:22;;;;;;;3.70;1.58;;;;;;;8.94;52.59;101202.59;5064223;28;20029;-70
2022/04/20 01:31:47;;;;;;;1.25;1.08;;;;;;;9.15;52.41;101208.88;5064432;28;20108;-68
2022/04/20 01:34:12;;;;;;;2.40;1.92;;;;;;;9.02;52.59;101213.03;5064850;28;20446;-70
2022/04/20 01:36:38;;;;;;;3.25;1.73;;;;;;;9.08;52.53;101215.69;5063216;28;20021;-70
2022/04/20 01:39:03;;;;;;;1.80;1.30;;;;;;;9.10;52.33;101214.00;5064428;28;20032;-71
2022/04/20 01:41:28;;;;;;;2.65;1.45;;;;;;;8.91;52.92;101213.78;5064221;28;20051;-70
2022/04/20 01:43:54;;;;;;;2.28;1.67;;;;;;;8.93;52.84;101208.63;5064128;28;20024;-69
2022/04/20 01:46:19;;;;;;;2.45;1.67;;;;;;;8.92;53.02;101210.34;5064584;28;20032;-70
2022/04/20 01:48:44;;;;;;;3.08;1.73;;;;;;;8.84;53.15;101219.75;5064335;28;20063;-70
2022/04/20 01:53:53;;;;;;;4.85;1.63;;;;;;;8.72;53.49;101224.78;5064462;28;20036;-70
2022/04/20 01:56:19;;;;;;;3.65;1.52;;;;;;;8.84;53.50;101217.16;5064433;28;20013;-70
2022/04/20 01:58:45;;;;;;;3.33;1.73;;;;;;;8.64;53.79;101214.34;5063949;28;20109;-70
2022/04/20 02:03:54;;;;;;;2.35;1.50;;;;;;;8.65;53.96;101216.06;5064084;28;20048;-70
2022/04/20 02:06:19;;;;;;;2.47;1.58;;;;;;;8.59;54.13;101213.41;5064129;28;20310;-69
2022/04/20 02:08:45;;;;;;;4.05;1.90;;;;;;;8.50;54.25;101222.75;5064071;28;20050;-70
2022/04/20 02:11:10;;;;;;;2.90;1.55;;;;;;;8.52;54.28;101222.75;5063951;28;20024;-70
2022/04/20 02:13:35;;;;;;;3.28;1.85;;;;;;;8.44;54.39;101220.06;5064084;28;20021;-70
2022/04/20 02:16:01;;;;;;;2.28;1.63;;;;;;;8.46;54.58;101222.69;5046041;28;20451;-70
2022/04/20 02:18:26;;;;;;;3.97;1.70;;;;;;;8.44;54.52;101212.31;5063835;28;20021;-70
2022/04/20 02:20:52;;;;;;;2.65;1.80;;;;;;;8.42;54.79;101222.63;5063882;28;20527;-69
2022/04/20 02:23:17;;;;;;;2.83;1.73;;;;;;;8.32;54.69;101233.72;5063837;28;20017;-69
2022/04/20 02:25:43;;;;;;;2.78;1.48;;;;;;;8.29;54.84;101229.34;5045767;28;20580;-69
2022/04/20 02:28:08;;;;;;;3.65;2.20;;;;;;;8.30;54.84;101228.53;5045689;28;20020;-70
2022/04/20 02:30:33;;;;;;;3.83;1.60;;;;;;;8.31;55.01;101238.03;5063624;28;20036;-69
2022/04/20 02:32:59;;;;;;;4.45;1.80;;;;;;;8.22;55.13;101227.53;5063176;28;20037;-69
2022/04/20 02:35:24;;;;;;;2.08;1.35;;;;;;;8.19;55.51;101238.69;5063690;28;20492;-69
2022/04/20 02:37:50;;;;;;;4.15;1.98;;;;;;;8.18;55.29;101252.47;5063529;28;20024;-70
2022/04/20 02:40:15;;;;;;;2.47;1.63;;;;;;;8.09;55.40;101244.59;5062768;28;20049;-70
2022/04/20 02:42:40;;;;;;;3.67;1.85;;;;;;;8.04;55.52;101246.22;5063350;28;20345;-69
2022/04/20 02:45:06;;;;;;;2.67;1.77;;;;;;;7.99;55.47;101255.63;5063350;28;20036;-69
2022/04/20 02:47:32;;;;;;;1.83;1.67;;;;;;;7.99;55.67;101256.50;5045296;28;20025;-69
2022/04/20 02:49:57;;;;;;;3.60;1.50;;;;;;;7.84;55.78;101241.63;5063229;28;20025;-69
2022/04/20 02:52:23;;;;;;;2.58;1.73;;;;;;;8.16;55.61;101258.50;5062517;28;20025;-69
2022/04/20 02:54:48;;;;;;;3.35;2.05;;;;;;;7.99;55.89;101268.53;5062305;28;20033;-70
2022/04/20 02:57:13;;;;;;;2.15;1.83;;;;;;;7.84;55.99;101261.41;5063176;28;20029;-70
2022/04/20 02:59:39;;;;;;;2.95;1.65;;;;;;;7.93;56.10;101267.63;5063279;28;20047;-69
2022/04/20 03:02:05;;;;;;;2.95;1.75;;;;;;;7.79;56.34;101275.16;5063008;28;20024;-70
2022/04/20 03:04:30;;;;;;;2.38;1.50;;;;;;;7.80;56.42;101269.13;5063292;28;20405;-69
2022/04/20 03:06:55;;;;;;;2.63;1.88;;;;;;;7.86;56.48;101263.19;5063109;28;20083;-69
2022/04/20 03:09:21;;;;;;;1.73;1.23;;;;;;;7.90;56.50;101259.81;5063340;28;20025;-69
2022/04/20 03:11:46;;;;;;;2.63;1.70;;;;;;;7.88;56.69;101273.53;5062032;28;20021;-69
2022/04/20 03:14:11;;;;;;;2.72;1.50;;;;;;;7.77;56.80;101269.06;5063152;28;20036;-70
2022/04/20 03:16:37;;;;;;;2.42;1.73;;;;;;;7.81;56.59;101259.66;5062957;28;20425;-68
2022/04/20 03:19:02;;;;;;;3.92;1.60;;;;;;;7.83;56.81;101259.69;5063002;28;20040;-68
2022/04/20 03:21:27;;;;;;;2.03;1.80;;;;;;;7.86;56.67;101264.91;5063225;28;20017;-69
2022/04/20 03:23:53;;;;;;;2.72;1.80;;;;;;;7.84;56.83;101258.84;5062864;28;20036;-69
2022/04/20 03:26:18;;;;;;;2.00;1.65;;;;;;;7.72;56.92;101262.94;5062895;28;20025;-69
2022/04/20 03:28:43;;;;;;;2.85;1.77;;;;;;;7.66;56.98;101257.69;5062082;28;20348;-70
2022/04/20 03:31:09;;;;;;;2.95;1.70;;;;;;;7.66;56.91;101257.69;5062098;28;20458;-70
2022/04/20 03:33:35;;;;;;;2.55;1.50;;;;;;;7.59;57.00;101246.34;5062766;28;20044;-70
2022/04/20 03:36:00;;;;;;;3.67;1.90;;;;;;;7.59;57.14;101254.09;5045056;28;20493;-70
2022/04/20 03:38:27;;;;;;;2.20;1.80;;;;;;;7.55;57.04;101260.97;5062878;28;20056;-70
2022/04/20 03:40:52;;;;;;;3.17;1.98;;;;;;;7.53;57.07;101256.59;5062961;28;20021;-70
2022/04/20 03:43:18;;;;;;;3.50;1.95;;;;;;;7.51;57.13;101256.56;5062541;28;20036;-68
2022/04/20 03:45:44;;;;;;;4.30;2.10;;;;;;;7.46;57.05;101254.75;5062981;28;20036;-72
2022/04/20 03:48:09;;;;;;;2.80;1.80;;;;;;;7.42;56.92;101265.03;5062577;28;20029;-73
2022/04/20 03:50:35;;;;;;;4.43;2.08;;;;;;;7.40;57.07;101273.56;5044940;28;20104;-70
2022/04/20 03:53:00;;;;;;;3.85;1.83;;;;;;;7.34;57.17;101271.75;5066118;28;20383;-69
2022/04/20 03:55:26;;;;;;;2.10;1.73;;;;;;;7.25;57.28;101271.59;5066827;28;20029;-70
2022/04/20 03:57:51;;;;;;;5.07;1.90;;;;;;;7.15;57.51;101265.34;5066361;28;20021;-70
2022/04/20 04:00:16;;;;;;;3.45;1.77;;;;;;;7.14;57.63;101279.13;5066709;28;20024;-70
2022/04/20 04:02:42;;;;;;;2.25;1.80;;;;;;;7.08;58.04;101279.84;5066148;28;20017;-69
2022/04/20 04:05:08;;;;;;;3.08;1.90;;;;;;;7.06;58.13;101291.88;5066477;28;20064;-71
2022/04/20 04:07:36;;;;;;;3.17;2.42;;;;;;;7.03;58.28;101291.78;5065051;28;20021;-70
2022/04/20 04:10:03;;;;;;;2.17;1.70;;;;;;;6.96;58.44;101289.94;5066402;28;20025;-72
2022/04/20 04:12:28;;;;;;;6.72;2.25;;;;;;;6.92;58.57;101294.16;5066045;28;20085;-71
2022/04/20 04:14:54;;;;;;;1.88;1.67;;;;;;;6.91;58.56;101289.84;5066005;28;20050;-71
2022/04/20 04:17:19;;;;;;;2.85;1.80;;;;;;;6.92;58.68;101295.03;5066131;28;20056;-71
2022/04/20 04:19:44;;;;;;;5.80;2.10;;;;;;;6.97;58.71;101291.66;5066374;28;20037;-71
2022/04/20 04:22:10;;;;;;;2.72;1.85;;;;;;;7.00;58.75;101292.59;5065962;28;20429;-71
2022/04/20 04:24:35;;;;;;;3.15;1.80;;;;;;;7.11;58.71;101286.81;5066422;28;20025;-71
2022/04/20 04:27:02;;;;;;;4.18;1.80;;;;;;;7.35;58.94;101291.56;5066275;28;20017;-70
2022/04/20 04:29:28;;;;;;;2.42;1.73;;;;;;;7.74;58.76;101292.28;5066189;28;20025;-70
2022/04/20 04:31:54;;;;;;;2.85;1.65;;;;;;;8.18;58.38;101280.94;5065742;28;20025;-71
2022/04/20 04:34:20;;;;;;;4.38;1.80;;;;;;;8.55;57.87;101280.66;5067030;28;20028;-70
2022/04/20 04:36:45;;;;;;;3.00;1.90;;;;;;;8.96;57.08;101280.31;5066554;28;20443;-70
2022/04/20 04:39:10;;;;;;;3.92;1.55;;;;;;;9.25;56.44;101284.97;5047831;28;20017;-70
2022/04/20 04:41:36;;;;;;;1.45;1.35;;;;;;;9.53;56.28;101257.63;5065964;28;20032;-72
2022/04/20 04:44:01;;;;;;;5.13;1.73;;;;;;;10.13;54.84;101287.50;5065712;28;20045;-71
2022/04/20 04:49:10;;;;;;;5.72;1.70;;;;;;;10.99;53.03;101279.38;5065708;28;20095;-71
2022/04/20 04:51:35;;;;;;;1.85;1.45;;;;;;;11.39;52.91;101274.28;5065604;28;20388;-71
2022/04/20 04:54:01;;;;;;;4.38;1.52;;;;;;;11.86;51.63;101278.69;5047501;28;20020;-72
2022/04/20 04:56:26;;;;;;;5.00;1.50;;;;;;;12.15;49.88;101280.44;5065722;28;20036;-71
2022/04/20 04:58:52;;;;;;;2.05;1.60;;;;;;;12.36;49.63;101279.53;5065853;28;20021;-70
2022/04/20 05:01:17;;;;;;;2.58;1.83;;;;;;;12.73;48.95;101272.53;5065539;28;20028;-70
2022/04/20 05:03:43;;;;;;;2.13;1.50;;;;;;;12.81;47.39;101278.53;5064013;28;20025;-70
2022/04/20 05:06:08;;;;;;;3.45;1.60;;;;;;;12.94;47.44;101278.53;5065091;28;20024;-70
2022/04/20 05:08:33;;;;;;;3.47;1.55;;;;;;;13.04;46.07;101263.69;5065230;28;20115;-70
2022/04/20 05:10:58;;;;;;;2.75;1.60;;;;;;;13.24;46.50;101284.47;5065069;28;20040;-70
2022/04/20 05:13:24;;;;;;;3.33;1.67;;;;;;;13.32;45.38;101279.19;5064891;28;20013;-70
2022/04/20 05:15:49;;;;;;;2.53;1.40;;;;;;;13.69;45.14;101285.94;5064756;28;20044;-64
2022/04/20 05:18:14;;;;;;;2.13;1.50;;;;;;;14.06;44.41;101279.53;5064426;28;20163;-66
2022/04/20 05:20:40;;;;;;;2.75;1.55;;;;;;;14.14;43.82;101277.72;5064731;28;20021;-70
2022/04/20 05:23:08;;;;;;;2.55;1.58;;;;;;;14.31;43.84;101274.97;5064537;28;20024;-71
2022/04/20 05:25:34;;;;;;;6.75;1.95;;;;;;;14.59;43.31;101279.91;5064974;28;20035;-69
2022/04/20 05:27:59;;;;;;;7.57;1.80;;;;;;;14.80;42.55;101288.41;5064478;28;20056;-69
2022/04/20 05:30:25;;;;;;;3.35;1.27;;;;;;;14.76;41.87;101286.66;5046637;28;20493;-70
2022/04/20 05:32:50;;;;;;;3.17;1.15;;;;;;;14.71;41.83;101285.88;5063938;28;20037;-68
2022/04/20 05:35:15;;;;;;;4.97;1.83;;;;;;;14.73;41.32;101284.97;5064488;28;20017;-68
2022/04/20 05:43:28;;;;;;;3.58;1.80;;;;;;;14.83;40.42;101283.13;4982663;28;20038;-69
2022/04/20 05:45:54;;;;;;;4.18;2.47;;;;;;;14.62;40.82;101268.53;4982565;28;20043;-69
2022/04/20 05:48:19;;;;;;;4.80;1.77;;;;;;;14.65;40.58;101283.31;4982566;28;20062;-68
2022/04/20 05:50:45;;;;;;;4.80;1.67;;;;;;;14.63;41.45;101276.34;4982690;28;20034;-68
2022/04/20 05:53:10;;;;;;;6.63;1.55;;;;;;;14.87;40.69;101284.81;4982368;28;20134;-68
2022/04/20 05:55:36;;;;;;;7.05;1.67;;;;;;;15.15;40.79;101281.00;4982616;28;20026;-68
2022/04/20 05:58:01;;;;;;;6.70;1.33;;;;;;;15.41;39.41;101281.50;4982455;28;20046;-67
2022/04/20 06:00:27;;;;;;;2.25;1.30;;;;;;;15.28;39.40;101279.06;4982536;28;20101;-68
2022/04/20 06:02:54;;;;;;;3.15;1.50;;;;;;;15.13;38.87;101281.91;4965821;28;20214;-68
2022/04/20 06:05:20;;;;;;;1.77;1.13;;;;;;;15.02;39.05;101282.91;4982694;28;20038;-69
2022/04/20 06:07:46;;;;;;;2.50;1.35;;;;;;;14.66;39.04;101285.06;4982444;28;20050;-68
2022/04/20 06:10:12;;;;;;;1.77;1.20;;;;;;;14.43;39.88;101283.53;4982535;28;20042;-67
2022/04/20 06:12:37;;;;;;;2.85;1.10;;;;;;;14.53;39.87;101268.63;5060893;28;20041;-68
2022/04/20 06:15:03;;;;;;;2.25;1.20;;;;;;;14.57;39.60;101272.97;5063749;28;20114;-68
2022/04/20 06:17:28;;;;;;;4.60;1.42;;;;;;;14.30;39.38;101268.00;5063555;28;20028;-68
2022/04/20 06:19:54;;;;;;;2.70;1.33;;;;;;;14.39;39.58;101277.50;5063780;28;20017;-67
2022/04/20 06:22:19;;;;;;;3.28;1.42;;;;;;;14.31;39.59;101269.75;5063510;28;20097;-68
2022/04/20 06:24:44;;;;;;;2.97;1.20;;;;;;;14.27;39.45;101280.22;5063592;28;20056;-69
2022/04/20 06:27:10;;;;;;;5.15;1.50;;;;;;;14.27;39.78;101278.47;5064069;28;20036;-69
2022/04/20 06:29:35;;;;;;;2.90;1.08;;;;;;;14.57;39.90;101268.59;5063749;28;20029;-69
2022/04/20 06:32:01;;;;;;;2.30;1.20;;;;;;;14.83;39.07;101275.28;5063082;28;20465;-69
2022/04/20 06:34:26;;;;;;;1.58;1.20;;;;;;;15.02;38.66;101277.66;5063654;28;20054;-70
2022/04/20 06:36:52;;;;;;;3.10;1.40;;;;;;;15.19;38.34;101266.13;5062135;28;20483;-69
2022/04/20 06:39:17;;;;;;;2.63;1.30;;;;;;;15.38;37.74;101271.09;5063455;28;20025;-68
2022/04/20 06:41:42;;;;;;;4.78;1.52;;;;;;;15.23;37.48;101265.19;5063506;28;20028;-69
2022/04/20 06:44:08;;;;;;;3.30;1.40;;;;;;;14.81;38.06;101269.22;5061896;28;20021;-69
2022/04/20 06:46:33;;;;;;;1.95;1.30;;;;;;;14.55;38.47;101259.03;5063275;28;20032;-69
2022/04/20 06:48:58;;;;;;;2.97;1.40;;;;;;;14.44;39.08;101265.25;5047237;28;20044;-68
2022/04/20 06:51:24;;;;;;;3.88;1.45;;;;;;;14.57;38.73;101260.75;5063251;28;20036;-69
2022/04/20 06:59:17;;;;;;;2.75;1.58;;;;;;;15.55;38.28;101256.00;5063265;28;20236;-68
2022/04/20 07:01:43;;;;;;;2.30;1.30;;;;;;;16.13;36.77;101264.69;5045001;28;20155;-70
2022/04/20 07:04:08;;;;;;;1.40;1.10;;;;;;;16.06;36.66;101264.78;5063020;28;20032;-70
2022/04/20 07:06:33;;;;;;;2.45;1.35;;;;;;;16.16;36.75;101265.50;5063171;28;20082;-69
2022/04/20 07:08:59;;;;;;;2.88;1.23;;;;;;;16.12;36.24;101255.94;5063199;28;20033;-68
2022/04/20 07:11:25;;;;;;;2.03;1.27;;;;;;;16.06;36.50;101262.19;5063108;28;20082;-71
2022/04/20 07:13:51;;;;;;;6.30;1.30;;;;;;;15.92;35.95;101264.13;5045184;28;20028;-69
2022/04/20 07:16:16;;;;;;;4.13;0.90;;;;;;;15.82;36.77;101256.44;5063089;28;20025;-68
2022/04/20 07:18:41;;;;;;;2.03;1.20;;;;;;;16.29;36.69;101255.66;5063215;28;20040;-69
2022/04/20 07:21:07;;;;;;;3.33;1.50;;;;;;;16.66;36.35;101264.53;5062624;28;20032;-70
2022/04/20 07:23:32;;;;;;;2.97;1.13;;;;;;;16.53;35.75;101255.22;5045085;28;20078;-69
2022/04/20 07:25:58;;;;;;;2.70;1.20;;;;;;;16.58;35.28;101266.47;5047024;28;20158;-69
2022/04/20 07:28:23;;;;;;;1.83;1.17;;;;;;;16.48;34.68;101253.53;5048772;28;20035;-68
2022/04/20 07:30:48;;;;;;;1.63;0.73;;;;;;;16.27;34.81;101260.06;5066763;28;20051;-68
2022/04/20 07:33:14;;;;;;;3.20;1.02;;;;;;;15.95;35.74;101253.59;5066937;28;20038;-67
2022/04/20 07:35:40;;;;;;;2.28;1.27;;;;;;;15.96;36.16;101265.78;5067702;28;20024;-67
2022/04/20 07:38:06;;;;;;;5.15;1.10;;;;;;;16.24;36.22;101260.13;5067243;28;20029;-68
2022/04/20 07:40:34;;;;;;;1.50;0.85;;;;;;;16.40;35.27;101255.44;5067321;28;20025;-68
2022/04/20 07:42:59;;;;;;;3.10;1.08;;;;;;;16.43;34.32;101272.88;5069482;28;20032;-67
2022/04/20 07:45:25;;;;;;;2.83;1.10;;;;;;;16.16;34.56;101257.63;5067262;28;20028;-67
2022/04/20 07:47:52;;;;;;;1.92;0.82;;;;;;;15.77;35.65;101262.66;5066335;28;20103;-68
2022/04/20 07:50:18;;;;;;;2.05;1.00;;;;;;;15.78;36.00;101262.63;5066659;28;20029;-68
2022/04/20 07:52:59;;;;;;;1.73;0.88;;;;;;;16.12;35.84;101250.72;5067009;28;20025;-71
2022/04/20 07:55:27;;;;;;;3.60;1.25;;;;;;;16.28;35.32;101248.69;5067650;28;20025;-68
2022/04/20 07:57:57;;;;;;;4.07;1.20;;;;;;;16.37;35.38;101249.41;5066732;28;20084;-68
2022/04/20 08:03:56;;;;;;;2.13;1.08;;;;;;;16.85;33.85;101249.28;5070444;28;20097;-68
2022/04/20 08:06:22;;;;;;;2.78;1.02;;;;;;;16.73;34.17;101247.81;5049299;28;20021;-67
2022/04/20 08:08:47;;;;;;;2.40;1.10;;;;;;;16.51;34.47;101239.50;5065986;28;20139;-69
2022/04/20 08:11:12;;;;;;;2.42;1.10;;;;;;;16.40;34.50;101255.44;5065983;28;20507;-67
2022/04/20 08:16:21;;;;;;;1.70;0.98;;;;;;;16.03;34.92;101258.75;5066047;28;20032;-69
2022/04/20 08:18:47;;;;;;;1.75;0.85;;;;;;;15.96;35.02;101255.31;5066131;28;20025;-68
2022/04/20 08:21:12;;;;;;;3.60;1.38;;;;;;;15.80;35.44;101234.66;5065851;28;20310;-69
2022/04/20 08:23:37;;;;;;;1.63;0.93;;;;;;;15.91;35.42;101259.78;5065941;28;20055;-69
2022/04/20 08:26:03;;;;;;;3.33;1.00;;;;;;;15.89;35.13;101245.84;5065742;28;20265;-69
2022/04/20 08:28:30;;;;;;;4.43;1.35;;;;;;;15.81;35.51;101270.44;5065592;28;20029;-69
2022/04/20 08:30:56;;;;;;;1.33;0.95;;;;;;;15.92;35.48;101238.81;5065673;28;20433;-69
2022/04/20 08:33:21;;;;;;;1.65;1.10;;;;;;;15.88;35.63;101242.38;5065274;28;20045;-69
2022/04/20 08:35:47;;;;;;;4.10;1.25;;;;;;;15.96;36.17;101244.84;5065686;28;20021;-70
2022/04/20 08:38:13;;;;;;;2.28;1.23;;;;;;;16.29;35.46;101231.22;5046154;28;20059;-69
2022/04/20 08:40:39;;;;;;;2.15;1.10;;;;;;;16.57;35.04;101226.28;5065444;28;20028;-69
2022/04/20 08:43:08;;;;;;;2.25;1.23;;;;;;;17.01;34.68;101233.25;5047234;28;20021;-69
2022/04/20 08:45:37;;;;;;;1.83;0.95;;;;;;;17.43;34.25;101241.91;5065346;28;20025;-69
2022/04/20 08:48:03;;;;;;;1.35;0.90;;;;;;;17.55;33.57;101225.91;5065232;28;20028;-69
2022/04/20 08:50:29;;;;;;;2.30;1.00;;;;;;;17.69;33.41;101227.31;5064074;28;20102;-68
2022/04/20 08:52:55;;;;;;;1.98;1.05;;;;;;;17.77;33.36;101220.09;5065219;28;20029;-68
2022/04/20 08:55:21;;;;;;;3.90;0.80;;;;;;;18.07;33.17;101225.44;5063694;28;20063;-69
2022/04/20 08:57:48;;;;;;;3.10;1.30;;;;;;;18.35;32.48;101215.09;5065289;28;20029;-69
2022/04/20 09:00:22;;;;;;;3.28;1.30;;;;;;;18.88;32.33;101224.94;5065196;28;20166;-68
2022/04/20 09:03:00;;;;;;;5.22;1.20;;;;;;;19.16;31.01;101233.78;5046883;28;20067;-68
2022/04/20 09:05:30;;;;;;;1.85;1.20;;;;;;;18.86;31.31;101229.41;5063622;28;20044;-68
2022/04/20 09:07:56;;;;;;;2.28;1.10;;;;;;;18.66;31.31;101238.75;5064946;28;20021;-68
2022/04/20 09:10:23;;;;;;;1.83;1.35;;;;;;;18.33;32.21;101228.28;5063458;28;20020;-67
2022/04/20 09:13:08;;;;;;;1.55;0.90;;;;;;;18.30;32.29;101228.38;5064779;28;20013;-68
2022/04/20 09:15:35;;;;;;;3.30;1.17;;;;;;;18.09;32.10;101223.66;5064723;28;20432;-68
2022/04/20 09:18:04;;;;;;;1.92;0.82;;;;;;;17.81;32.62;101226.97;5064715;28;20025;-68
2022/04/20 09:20:32;;;;;;;2.70;1.02;;;;;;;17.57;33.12;101202.22;5046713;28;20036;-68
2022/04/20 09:23:09;;;;;;;1.55;1.00;;;;;;;17.61;33.38;101219.63;5064515;28;20064;-67
2022/04/20 09:25:36;;;;;;;6.35;1.60;;;;;;;17.81;33.10;101194.63;5064646;28;20013;-67
2022/04/20 09:28:07;;;;;;;3.28;1.02;;;;;;;18.31;32.59;101191.53;5046444;28;20032;-69
2022/04/20 09:30:41;;;;;;;2.83;1.00;;;;;;;18.58;31.41;101186.38;5064619;28;20029;-68
2022/04/20 09:33:09;;;;;;;1.83;1.05;;;;;;;18.21;31.70;101205.84;5064076;28;20458;-68
2022/04/20 09:35:41;;;;;;;2.08;1.33;;;;;;;17.87;32.60;101189.22;5064520;28;20017;-67
2022/04/20 09:38:07;;;;;;;3.88;1.20;;;;;;;17.86;32.46;101202.38;5064162;28;20027;-68
2022/04/20 09:40:36;;;;;;;1.50;0.88;;;;;;;17.92;32.34;101182.03;5063313;28;20017;-67
2022/04/20 09:43:12;;;;;;;1.33;0.90;;;;;;;17.88;32.01;101193.53;5063383;28;20053;-70
2022/04/20 09:45:38;;;;;;;1.95;1.27;;;;;;;17.69;32.93;101193.16;5063491;28;20108;-67
2022/04/20 09:51:10;;;;;;;2.20;0.82;;;;;;;18.53;31.49;101201.44;5063868;28;20031;-68
2022/04/20 09:53:35;;;;;;;4.20;1.10;;;;;;;18.46;31.73;101202.53;5064042;28;20025;-68
2022/04/20 09:56:22;;;;;;;3.35;2.00;;;;;;;18.53;31.34;101197.97;5062771;28;20017;-68
2022/04/20 09:58:57;;;;;;;3.38;0.95;;;;;;;18.51;31.69;101178.72;5064447;28;20025;-70
2022/04/20 10:01:34;;;;;;;1.83;1.00;;;;;;;18.68;31.64;101196.63;5063958;28;20024;-68
2022/04/20 10:04:02;;;;;;;3.08;1.00;;;;;;;18.87;31.25;101181.13;5062122;28;20044;-69
2022/04/20 10:06:27;;;;;;;2.30;1.00;;;;;;;18.80;30.98;101174.38;5063886;28;20033;-69
2022/04/20 10:08:53;;;;;;;4.38;1.30;;;;;;;18.71;31.42;101186.00;5063901;28;20023;-70
2022/04/20 10:11:22;;;;;;;4.18;1.30;;;;;;;18.90;31.33;101180.19;5064001;28;20124;-68
2022/04/20 10:16:05;;;;;;;3.20;1.08;;;;;;;19.16;30.72;101170.63;5063682;28;20056;-69
2022/04/20 10:16:38;;;;;;;2.80;1.25;;;;;;;19.36;30.40;101177.03;5063526;28;20040;-70
2022/04/20 10:19:06;;;;;;;7.53;1.48;;;;;;;19.34;30.55;101178.84;5063499;28;20052;-69
2022/04/20 10:21:42;;;;;;;3.00;1.05;;;;;;;19.41;30.33;101186.47;5063521;28;20020;-69
2022/04/20 10:24:12;;;;;;;3.20;1.40;;;;;;;19.42;30.52;101155.75;5045820;28;20088;-69
2022/04/20 10:26:38;;;;;;;2.45;1.17;;;;;;;19.60;30.10;101148.16;5045487;28;20136;-69
2022/04/20 10:29:37;;;;;;;1.00;0.70;;;;;;;19.75;29.90;101175.72;5045494;28;20032;-70
2022/04/20 10:32:09;;;;;;;2.95;1.20;;;;;;;19.41;30.05;101172.47;5063165;28;20056;-70
2022/04/20 10:34:35;;;;;;;1.20;0.82;;;;;;;19.38;30.49;101168.16;5045246;28;20027;-70
2022/04/20 10:37:04;;;;;;;1.77;0.80;;;;;;;19.59;29.93;101159.56;5063224;28;20024;-70
2022/04/20 10:39:39;;;;;;;1.40;0.95;;;;;;;19.48;29.87;101178.38;5063380;28;20025;-70
2022/04/20 10:42:11;;;;;;;1.80;0.90;;;;;;;19.47;30.08;101159.09;5063187;28;20025;-68
2022/04/20 10:44:48;;;;;;;;;;;;;;;19.64;30.53;101139.22;5063766;28;20524;-70
2022/04/20 10:47:20;;;;;;;2.03;1.20;;;;;;;20.35;28.89;101150.78;5063037;28;19909;-68
2022/04/20 10:49:45;;;;;;;2.58;1.13;;;;;;;20.20;29.03;101168.88;5063497;28;20039;-69
2022/04/20 10:52:24;;;;;;;3.45;0.90;;;;;;;19.59;29.70;101135.88;5063248;28;20032;-70
2022/04/20 10:54:53;;;;;;;1.35;0.90;;;;;;;19.21;30.33;101142.41;5045066;28;20112;-70
2022/04/20 10:57:33;;;;;;;2.42;1.48;;;;;;;19.28;30.30;101122.84;5063093;28;20029;-70
2022/04/20 11:00:17;;;;;;;5.20;2.17;;;;;;;19.33;30.13;101120.06;5045038;28;20082;-68
2022/04/20 11:02:49;;;;;;;4.60;1.20;;;;;;;19.44;29.93;101127.63;5044268;28;20035;-69
2022/04/20 11:05:20;;;;;;;3.17;1.05;;;;;;;19.46;29.98;101125.75;5063122;28;20032;-70
2022/04/20 11:08:14;;;;;;;1.77;1.30;;;;;;;19.53;29.82;101140.47;5062883;28;20033;-69
2022/04/20 11:10:42;;;;;;;2.72;0.88;;;;;;;19.51;29.83;101122.97;5062995;28;20017;-73
2022/04/20 11:19:07;;;;;;;1.48;0.80;;;;;;;19.81;29.49;101115.75;5062536;28;20100;-70
2022/04/20 11:21:34;;;;;;;2.25;1.10;;;;;;;19.84;29.25;101113.94;5062686;28;20036;-71
2022/04/20 11:24:07;;;;;;;1.50;0.90;;;;;;;19.85;29.43;101105.13;5061370;28;20028;-70
2022/04/20 11:26:48;;;;;;;2.72;0.90;;;;;;;19.19;30.09;101110.00;5062645;28;20052;-73
2022/04/20 11:29:21;;;;;;;1.98;1.00;;;;;;;18.24;31.36;101121.66;5060386;28;20025;-72
2022/04/20 11:31:59;;;;;;;2.13;0.90;;;;;;;17.57;32.18;101098.06;5043868;28;20078;-70
2022/04/20 11:34:27;;;;;;;2.00;1.15;;;;;;;17.26;32.61;101104.13;5062548;28;20023;-69
2022/04/20 11:36:54;;;;;;;1.65;1.13;;;;;;;16.92;33.13;101078.69;5062576;28;20494;-71
2022/04/20 11:39:22;;;;;;;1.65;1.10;;;;;;;16.69;33.86;101098.47;5062563;28;20102;-70
2022/04/20 11:41:52;;;;;;;2.22;1.33;;;;;;;16.35;34.44;101077.38;5062520;28;20082;-71
2022/04/20 11:44:29;;;;;;;2.53;1.10;;;;;;;16.48;34.71;101087.56;5044741;28;20063;-71
2022/04/20 11:47:02;;;;;;;2.17;1.23;;;;;;;16.40;35.10;101079.00;5062666;28;20029;-68
2022/04/20 11:49:41;;;;;;;2.55;1.35;;;;;;;16.46;34.86;101071.00;5062509;28;20056;-69
2022/04/20 11:52:14;;;;;;;3.80;1.15;;;;;;;16.34;34.89;101086.09;5062572;28;20024;-70
2022/04/20 11:54:41;;;;;;;1.98;0.88;;;;;;;16.31;34.95;101082.72;5062612;28;20017;-71
2022/04/20 11:57:08;;;;;;;2.10;0.80;;;;;;;16.25;34.93;101074.94;5062354;28;20024;-69
2022/04/20 11:59:40;;;;;;;4.20;1.58;;;;;;;16.18;35.20;101066.38;5062254;28;20120;-69
2022/04/20 12:02:06;;;;;;;2.30;1.10;;;;;;;16.39;35.13;101088.63;5062972;28;20106;-69
2022/04/20 12:04:31;;;;;;;4.10;1.10;;;;;;;16.39;35.25;101075.50;5062186;28;20488;-69